Time;durP1;ratioP1;P1;durP2;ratioP2;P2;SDS_P1;SDS_P2;PMS_P1;PMS_P2;Temp;Humidity;BMP_temperature;BMP_pressure;BME280_temperature;BME280_humidity;BME280_pressure;Samples;Min_cycle;Max_cycle;Signal;HPM_P1;HPM_P2
2021/05/20 00:00:20;;;;;;;6.32;2.60;;;11.90;75.70;;;;;;5073046;28;20260;-66
2021/05/20 00:02:47;;;;;;;6.43;2.75;;;11.90;75.80;;;;;;5073378;28;20484;-65
2021/05/20 00:05:18;;;;;;;6.68;2.65;;;12.00;75.30;;;;;;5073297;28;20458;-71
2021/05/20 00:07:46;;;;;;;5.05;2.22;;;11.90;75.90;;;;;;5073360;28;20488;-71
2021/05/20 00:10:16;;;;;;;7.40;3.15;;;11.90;75.90;;;;;;5073226;28;20097;-71
2021/05/20 00:12:45;;;;;;;4.88;2.10;;;11.90;76.00;;;;;;5074343;28;20036;-71
2021/05/20 00:15:13;;;;;;;5.40;2.17;;;11.90;76.20;;;;;;5073414;28;20059;-65
2021/05/20 00:17:39;;;;;;;9.65;2.65;;;11.90;76.30;;;;;;5073117;28;20032;-65
2021/05/20 00:20:06;;;;;;;5.15;2.42;;;11.80;76.40;;;;;;5074385;28;20464;-70
2021/05/20 00:22:32;;;;;;;6.95;2.70;;;11.80;76.30;;;;;;5089764;28;20036;-71
2021/05/20 00:24:59;;;;;;;7.25;2.58;;;11.80;76.40;;;;;;5074186;28;20039;-65
2021/05/20 00:27:25;;;;;;;6.15;2.22;;;11.80;76.30;;;;;;5074139;28;20040;-65
2021/05/20 00:29:51;;;;;;;9.57;2.72;;;11.80;76.30;;;;;;5074098;28;20403;-65
2021/05/20 00:32:17;;;;;;;;;;;11.80;76.40;;;;;;5074692;28;20037;-65
2021/05/20 00:34:44;;;;;;;6.22;2.75;;;11.70;76.20;;;;;;5073844;28;19916;-64
2021/05/20 00:37:10;;;;;;;;;;;11.70;76.60;;;;;;5073289;28;20040;-70
2021/05/20 00:39:36;;;;;;;8.98;2.10;;;11.70;76.50;;;;;;5072761;28;19916;-65
2021/05/20 00:42:22;;;;;;;4.97;2.20;;;11.70;76.60;;;;;;5073707;28;20075;-71
2021/05/20 00:45:07;;;;;;;5.85;2.10;;;11.70;76.80;;;;;;5072467;28;20033;-71
2021/05/20 00:47:34;;;;;;;5.10;2.20;;;11.60;76.10;;;;;;5089392;28;20431;-69
2021/05/20 00:50:21;;;;;;;7.30;2.38;;;11.60;76.50;;;;;;5072334;28;20044;-70
2021/05/20 00:52:47;;;;;;;9.05;2.97;;;11.70;76.90;;;;;;5073536;28;20067;-71
2021/05/20 00:55:16;;;;;;;;;;;11.60;76.80;;;;;;5072687;28;20033;-65
2021/05/20 00:57:43;;;;;;;6.63;2.90;;;11.60;76.40;;;;;;5072256;28;19967;-65
2021/05/20 01:00:28;;;;;;;6.88;2.90;;;11.70;76.60;;;;;;5071755;28;20045;-71
2021/05/20 01:02:54;;;;;;;7.82;2.90;;;11.60;77.10;;;;;;5073259;28;20083;-68
2021/05/20 01:05:20;;;;;;;10.10;2.90;;;11.60;77.00;;;;;;5073561;28;20369;-64
2021/05/20 01:07:46;;;;;;;;;;;11.60;77.20;;;;;;5072572;28;20075;-71
2021/05/20 01:10:13;;;;;;;7.13;3.42;;;11.60;77.00;;;;;;5072877;28;19943;-64
2021/05/20 01:12:40;;;;;;;7.38;3.58;;;11.60;77.00;;;;;;5073244;28;20108;-71
2021/05/20 01:15:19;;;;;;;6.47;3.25;;;11.60;76.70;;;;;;5071840;28;20041;-65
2021/05/20 01:18:06;;;;;;;7.53;3.55;;;11.60;77.30;;;;;;5073207;28;20438;-65
2021/05/20 01:20:41;;;;;;;7.37;3.33;;;11.60;77.30;;;;;;5073249;28;20036;-71
2021/05/20 01:23:11;;;;;;;7.80;3.53;;;11.60;77.30;;;;;;5073093;28;20078;-65
2021/05/20 01:25:40;;;;;;;10.52;3.70;;;11.60;77.30;;;;;;5071936;28;20025;-71
2021/05/20 01:28:28;;;;;;;7.68;3.70;;;11.60;77.30;;;;;;5071809;28;20064;-64
2021/05/20 01:30:54;;;;;;;7.07;3.22;;;11.60;77.40;;;;;;5071823;28;20059;-65
2021/05/20 01:33:20;;;;;;;;;;;11.60;77.40;;;;;;5072350;28;20029;-71
2021/05/20 01:35:47;;;;;;;6.90;3.72;;;11.60;77.10;;;;;;5073057;28;19931;-71
2021/05/20 01:41:07;;;;;;;9.05;4.63;;;11.60;77.60;;;;;;5071765;28;20039;-71
2021/05/20 01:43:35;;;;;;;16.13;7.88;;;11.60;77.30;;;;;;5071519;28;20040;-64
2021/05/20 01:46:02;;;;;;;11.18;5.88;;;11.50;77.30;;;;;;5073100;28;20040;-64
2021/05/20 01:48:48;;;;;;;16.90;7.93;;;11.50;76.90;;;;;;5071476;28;20031;-65
2021/05/20 01:51:36;;;;;;;14.13;7.20;;;11.50;77.60;;;;;;5088513;28;20449;-66
2021/05/20 01:54:03;;;;;;;12.65;6.70;;;11.50;77.60;;;;;;5088264;28;20048;-64
2021/05/20 01:56:34;;;;;;;30.95;15.57;;;11.50;77.60;;;;;;5071689;28;20028;-71
2021/05/20 01:59:01;;;;;;;42.85;21.77;;;11.60;77.60;;;;;;5071544;28;20036;-65
2021/05/20 02:01:27;;;;;;;26.45;12.60;;;11.60;77.00;;;;;;5071415;28;20083;-65
2021/05/20 02:03:53;;;;;;;;;;;11.60;77.60;;;;;;5073417;28;20439;-64
2021/05/20 02:06:19;;;;;;;13.32;6.90;;;11.60;77.50;;;;;;5071552;28;19928;-71
2021/05/20 02:08:45;;;;;;;12.45;5.78;;;11.60;77.50;;;;;;5071346;28;20166;-71
2021/05/20 02:11:11;;;;;;;10.50;4.95;;;11.60;77.60;;;;;;5071560;28;20068;-71
2021/05/20 02:13:37;;;;;;;11.05;4.40;;;11.60;77.60;;;;;;5071332;28;20103;-71
2021/05/20 02:16:24;;;;;;;9.88;5.30;;;11.60;77.70;;;;;;5072873;28;20503;-65
2021/05/20 02:18:51;;;;;;;7.50;3.67;;;11.60;77.60;;;;;;5071293;28;20090;-71
2021/05/20 02:21:17;;;;;;;7.90;4.20;;;11.60;77.60;;;;;;5071406;28;20127;-64
2021/05/20 02:23:43;;;;;;;;;;;11.50;77.10;;;;;;5075745;28;20029;-71
2021/05/20 02:26:10;;;;;;;7.28;3.55;;;11.60;77.50;;;;;;5076866;28;19920;-64
2021/05/20 02:28:36;;;;;;;7.95;4.00;;;11.60;77.40;;;;;;5075097;28;20110;-71
2021/05/20 02:31:02;;;;;;;10.02;3.85;;;11.60;77.50;;;;;;5075013;28;20044;-71
2021/05/20 02:33:29;;;;;;;8.73;4.85;;;11.60;77.70;;;;;;5076320;28;20095;-64
2021/05/20 02:35:55;;;;;;;8.27;3.38;;;11.60;77.80;;;;;;5075042;28;20480;-64
2021/05/20 02:38:21;;;;;;;7.15;3.08;;;11.60;77.80;;;;;;5075059;28;20111;-64
2021/05/20 02:40:47;;;;;;;;;;;11.60;77.80;;;;;;5076726;28;20036;-71
2021/05/20 02:43:13;;;;;;;9.95;3.83;;;11.60;77.00;;;;;;5076370;28;19959;-68
2021/05/20 02:45:40;;;;;;;8.27;4.10;;;11.60;77.50;;;;;;5076221;28;20094;-71
2021/05/20 02:48:07;;;;;;;8.13;4.03;;;11.60;77.70;;;;;;5074784;28;20460;-65
2021/05/20 02:50:33;;;;;;;15.32;7.55;;;11.60;77.70;;;;;;5074801;28;20044;-64
2021/05/20 02:52:59;;;;;;;10.35;5.60;;;11.60;77.90;;;;;;5075885;28;20080;-71
2021/05/20 02:55:25;;;;;;;12.57;5.93;;;11.60;77.90;;;;;;5074732;28;20041;-71
2021/05/20 02:57:54;;;;;;;;;;;11.60;78.00;;;;;;5075066;28;20043;-71
2021/05/20 03:00:21;;;;;;;7.47;4.22;;;11.60;77.60;;;;;;5074489;28;19978;-71
2021/05/20 03:03:08;;;;;;;7.88;3.97;;;11.60;77.70;;;;;;5074489;28;20471;-64
2021/05/20 03:05:34;;;;;;;8.68;4.47;;;11.60;77.90;;;;;;5074571;28;20039;-68
2021/05/20 03:08:00;;;;;;;8.35;4.00;;;11.60;78.10;;;;;;5075603;28;20045;-65
2021/05/20 03:10:27;;;;;;;9.85;3.75;;;11.60;78.10;;;;;;5075778;28;20590;-71
2021/05/20 03:12:53;;;;;;;;;;;11.60;77.50;;;;;;5074918;28;20075;-71
2021/05/20 03:15:19;;;;;;;8.60;3.88;;;11.60;77.80;;;;;;5074339;28;19966;-67
2021/05/20 03:17:45;;;;;;;;;;;11.60;77.30;;;;;;5074720;28;20121;-65
2021/05/20 03:20:13;;;;;;;8.60;4.35;;;11.60;77.90;;;;;;5075424;28;19916;-71
2021/05/20 03:22:40;;;;;;;7.03;3.78;;;11.50;77.80;;;;;;5074227;28;20028;-65
2021/05/20 03:25:07;;;;;;;10.32;4.32;;;11.60;77.50;;;;;;5075362;28;20036;-71
2021/05/20 03:27:33;;;;;;;9.00;3.85;;;11.60;78.00;;;;;;5075381;28;20496;-71
2021/05/20 03:29:59;;;;;;;8.43;4.15;;;11.50;78.20;;;;;;5075260;28;20420;-71
2021/05/20 03:32:26;;;;;;;7.53;3.63;;;11.50;78.40;;;;;;5073398;28;20407;-71
2021/05/20 03:34:52;;;;;;;9.43;4.05;;;11.50;78.70;;;;;;5075187;28;20257;-71
2021/05/20 03:37:18;;;;;;;7.57;3.83;;;11.50;78.60;;;;;;5090888;28;20346;-70
2021/05/20 03:39:44;;;;;;;8.43;3.80;;;11.50;78.50;;;;;;5075020;28;20029;-65
2021/05/20 03:42:10;;;;;;;;;;;11.50;78.60;;;;;;5074306;28;20412;-71
2021/05/20 03:44:36;;;;;;;8.35;3.80;;;11.50;78.30;;;;;;5074966;28;19913;-71
2021/05/20 03:47:02;;;;;;;7.85;3.92;;;11.50;78.20;;;;;;5073739;28;20036;-71
2021/05/20 03:49:28;;;;;;;;;;;11.50;78.30;;;;;;5075314;28;20044;-71
2021/05/20 03:51:54;;;;;;;8.65;3.90;;;11.50;78.20;;;;;;5073565;28;19920;-69
2021/05/20 03:54:21;;;;;;;6.38;3.47;;;11.50;78.30;;;;;;5074699;28;20047;-64
2021/05/20 03:56:47;;;;;;;;;;;11.50;78.40;;;;;;5074105;28;20545;-71
2021/05/20 03:59:13;;;;;;;8.45;3.50;;;11.50;78.30;;;;;;5074673;28;19970;-71
2021/05/20 04:01:40;;;;;;;6.72;3.70;;;11.50;78.40;;;;;;5074404;28;20052;-71
2021/05/20 04:04:07;;;;;;;9.18;3.50;;;11.50;78.50;;;;;;5074583;28;20040;-71
2021/05/20 04:06:34;;;;;;;8.13;3.72;;;11.40;78.30;;;;;;5073609;28;20051;-64
2021/05/20 04:09:00;;;;;;;6.72;3.50;;;11.40;77.80;;;;;;5074461;28;20090;-65
2021/05/20 04:11:28;;;;;;;8.60;3.65;;;11.50;78.60;;;;;;5074913;28;20063;-64
2021/05/20 04:13:55;;;;;;;9.13;4.03;;;11.50;78.50;;;;;;5089797;28;20039;-71
2021/05/20 04:16:24;;;;;;;;;;;11.50;79.30;;;;;;5073947;28;20408;-64
2021/05/20 04:18:53;;;;;;;8.57;4.47;;;11.50;78.30;;;;;;5074200;28;19916;-71
2021/05/20 04:21:20;;;;;;;8.02;3.50;;;11.50;78.20;;;;;;5072891;28;20048;-64
2021/05/20 04:23:47;;;;;;;7.75;4.22;;;11.50;78.40;;;;;;5074216;28;20428;-71
2021/05/20 04:26:18;;;;;;;6.78;3.20;;;11.50;78.50;;;;;;5056341;28;20086;-65
2021/05/20 04:29:05;;;;;;;6.60;3.40;;;11.50;78.00;;;;;;5072924;28;20036;-65
2021/05/20 04:31:33;;;;;;;7.07;3.43;;;11.60;78.60;;;;;;5074069;28;20036;-71
2021/05/20 04:34:00;;;;;;;7.20;3.03;;;11.60;78.40;;;;;;5073900;28;20452;-71
2021/05/20 04:36:26;;;;;;;;;;;11.60;78.40;;;;;;5073585;28;20040;-71
2021/05/20 04:38:52;;;;;;;6.57;3.17;;;11.70;78.30;;;;;;5073843;28;20364;-67
2021/05/20 04:41:21;;;;;;;;;;;11.70;78.10;;;;;;5073277;28;20032;-71
2021/05/20 04:43:47;;;;;;;6.78;3.15;;;11.70;77.90;;;;;;5073534;28;20355;-66
2021/05/20 04:46:14;;;;;;;20.90;9.93;;;11.70;77.90;;;;;;5073577;28;20392;-71
2021/05/20 04:48:43;;;;;;;52.22;22.73;;;11.80;77.30;;;;;;5073603;28;20041;-65
2021/05/20 04:51:09;;;;;;;174.85;89.05;;;11.80;77.90;;;;;;5074014;28;20078;-71
2021/05/20 04:53:35;;;;;;;;;;;11.90;78.00;;;;;;5074242;28;20044;-71
2021/05/20 04:56:07;;;;;;;20.60;11.20;;;11.90;77.90;;;;;;5073672;28;19916;-65
2021/05/20 04:58:39;;;;;;;20.30;9.73;;;11.90;78.00;;;;;;5055893;28;20557;-65
2021/05/20 05:01:07;;;;;;;11.50;7.18;;;11.90;78.00;;;;;;5071839;28;20079;-67
2021/05/20 05:03:33;;;;;;;10.07;4.60;;;11.90;78.00;;;;;;5088898;28;20052;-65
2021/05/20 05:06:03;;;;;;;8.23;4.22;;;11.90;78.10;;;;;;5073717;28;20139;-71
2021/05/20 05:08:32;;;;;;;14.25;7.05;;;12.00;78.10;;;;;;5088993;28;20516;-65
2021/05/20 05:11:06;;;;;;;12.45;6.13;;;12.00;77.90;;;;;;5071892;28;20530;-71
2021/05/20 05:13:32;;;;;;;49.20;28.52;;;12.10;77.90;;;;;;5071257;28;20037;-64
2021/05/20 05:15:59;;;;;;;10.27;4.85;;;12.10;77.90;;;;;;5073490;28;20032;-64
2021/05/20 05:18:26;;;;;;;7.47;2.67;;;12.10;77.80;;;;;;5073171;28;20047;-65
2021/05/20 05:20:54;;;;;;;6.18;2.70;;;12.10;77.60;;;;;;5071684;28;20387;-65
2021/05/20 05:23:23;;;;;;;6.45;2.35;;;12.10;78.40;;;;;;5073210;28;20508;-65
2021/05/20 05:25:53;;;;;;;7.05;3.17;;;12.20;78.20;;;;;;5073326;28;20464;-71
2021/05/20 05:28:19;;;;;;;6.13;1.98;;;12.30;78.20;;;;;;5073056;28;20131;-71
2021/05/20 05:31:16;;;;;;;4.85;2.33;;;12.40;77.80;;;;;;5073121;28;20039;-65
2021/05/20 05:33:42;;;;;;;7.47;2.03;;;12.40;77.60;;;;;;5060182;28;20071;-66
2021/05/20 05:36:29;;;;;;;;;;;12.50;77.50;;;;;;5072467;28;20020;-71
2021/05/20 05:39:46;;;;;;;4.53;1.80;;;12.50;77.10;;;;;;5072349;28;19920;-71
2021/05/20 05:41:53;;;;;;;9.90;3.50;;;12.40;77.60;;;;;;5068271;28;20052;-71
2021/05/20 05:44:19;;;;;;;10.63;4.47;;;12.50;77.60;;;;;;5072835;28;20052;-71
2021/05/20 05:46:45;;;;;;;40.05;19.38;;;12.60;77.30;;;;;;5072802;28;20048;-64
2021/05/20 05:49:24;;;;;;;28.70;14.68;;;12.70;77.50;;;;;;5054772;28;20392;-71
2021/05/20 05:52:06;;;;;;;7.00;3.65;;;12.70;77.10;;;;;;5071613;28;20040;-71
2021/05/20 05:54:37;;;;;;;17.67;8.18;;;12.90;76.60;;;;;;5072652;28;20115;-65
2021/05/20 05:57:04;;;;;;;6.90;3.30;;;12.90;76.10;;;;;;5071326;28;20039;-64
2021/05/20 05:59:33;;;;;;;4.97;1.83;;;13.00;75.50;;;;;;5087801;28;20032;-71
2021/05/20 06:01:59;;;;;;;3.70;1.60;;;13.10;76.40;;;;;;5071408;28;20048;-65
2021/05/20 06:04:27;;;;;;;10.80;4.13;;;13.20;76.20;;;;;;5071371;28;20029;-65
2021/05/20 06:06:59;;;;;;;12.25;3.25;;;13.30;75.70;;;;;;5072640;28;20098;-65
2021/05/20 06:09:29;;;;;;;4.90;1.98;;;13.40;75.50;;;;;;5072543;28;20044;-71
2021/05/20 06:11:57;;;;;;;49.78;21.15;;;13.50;75.20;;;;;;5071323;28;20032;-65
2021/05/20 06:14:24;;;;;;;10.18;4.03;;;13.60;75.10;;;;;;5071209;28;20120;-65
2021/05/20 06:16:58;;;;;;;;;;;13.70;75.20;;;;;;5073008;28;20523;-65
2021/05/20 06:19:32;;;;;;;4.75;1.92;;;13.80;75.20;;;;;;5071191;28;19913;-68
2021/05/20 06:22:01;;;;;;;4.53;1.70;;;13.80;74.90;;;;;;5071176;28;20098;-64
2021/05/20 06:24:27;;;;;;;6.75;2.20;;;13.90;74.80;;;;;;5071129;28;20130;-65
2021/05/20 06:26:55;;;;;;;;;;;14.00;74.00;;;;;;5073024;28;20035;-71
2021/05/20 06:29:24;;;;;;;5.72;2.20;;;14.10;74.70;;;;;;5071139;28;19920;-65
2021/05/20 06:31:50;;;;;;;11.13;3.95;;;14.20;74.20;;;;;;5072309;28;20033;-71
2021/05/20 06:34:16;;;;;;;;;;;14.20;74.80;;;;;;5071634;28;20029;-71
2021/05/20 06:36:42;;;;;;;8.07;4.00;;;14.30;74.20;;;;;;5072765;28;19916;-70
2021/05/20 06:39:08;;;;;;;;;;;14.40;73.30;;;;;;5072828;28;20044;-71
2021/05/20 06:41:35;;;;;;;5.47;2.30;;;14.40;73.50;;;;;;5072619;28;20414;-64
2021/05/20 06:44:01;;;;;;;4.57;1.98;;;14.40;73.10;;;;;;5070945;28;20457;-64
2021/05/20 06:46:27;;;;;;;;;;;14.60;73.00;;;;;;5071740;28;20032;-71
2021/05/20 06:48:54;;;;;;;16.02;5.22;;;14.70;73.00;;;;;;5070915;28;19974;-65
2021/05/20 06:54:14;;;;;;;11.82;3.25;;;14.90;71.60;;;;;;5069720;28;20162;-71
2021/05/20 06:56:42;;;;;;;19.60;7.47;;;15.20;72.10;;;;;;5053065;28;20037;-71
2021/05/20 07:01:59;;;;;;;42.67;20.35;;;15.40;71.10;;;;;;5069477;28;20059;-70
2021/05/20 07:04:28;;;;;;;11.25;4.18;;;15.50;71.30;;;;;;5069572;28;20036;-65
2021/05/20 07:07:00;;;;;;;5.65;2.60;;;15.60;71.20;;;;;;5052653;28;20585;-66
2021/05/20 07:09:47;;;;;;;5.25;2.45;;;15.70;71.00;;;;;;5056839;28;20492;-71
2021/05/20 07:12:14;;;;;;;11.13;4.70;;;15.80;70.70;;;;;;5073326;28;20048;-71
2021/05/20 07:14:41;;;;;;;15.93;8.43;;;15.90;70.60;;;;;;5056249;28;20098;-65
2021/05/20 07:17:07;;;;;;;13.93;5.63;;;16.10;70.50;;;;;;5073120;28;20040;-71
2021/05/20 07:19:37;;;;;;;14.48;7.57;;;16.10;69.70;;;;;;5072854;28;20484;-71
2021/05/20 07:22:07;;;;;;;12.90;4.20;;;16.20;69.40;;;;;;5056204;28;20102;-65
2021/05/20 07:24:33;;;;;;;11.05;3.13;;;16.40;69.10;;;;;;5073534;28;20049;-65
2021/05/20 07:27:09;;;;;;;33.10;14.60;;;16.40;67.70;;;;;;5075257;28;20518;-71
2021/05/20 07:29:35;;;;;;;18.13;6.85;;;16.40;68.20;;;;;;5073894;28;20535;-71
2021/05/20 07:32:03;;;;;;;;;;;16.40;67.70;;;;;;5075711;28;20115;-71
2021/05/20 07:34:32;;;;;;;8.63;3.03;;;16.50;68.20;;;;;;5074226;28;19912;-69
2021/05/20 07:36:59;;;;;;;17.42;6.82;;;16.60;67.10;;;;;;5075059;28;20035;-65
2021/05/20 07:39:38;;;;;;;12.10;4.35;;;16.60;66.60;;;;;;5074964;28;20040;-71
2021/05/20 07:42:07;;;;;;;8.05;3.35;;;16.70;66.30;;;;;;5074953;28;20036;-65
2021/05/20 07:44:38;;;;;;;8.18;2.95;;;16.70;65.30;;;;;;5073719;28;20114;-71
2021/05/20 07:47:05;;;;;;;20.63;6.93;;;16.80;66.00;;;;;;5075274;28;20048;-71
2021/05/20 07:49:32;;;;;;;32.22;9.88;;;16.90;65.70;;;;;;5074884;28;20040;-71
2021/05/20 07:51:58;;;;;;;34.28;10.02;;;17.20;65.10;;;;;;5090366;28;20094;-65
2021/05/20 07:54:27;;;;;;;44.47;16.10;;;17.40;63.70;;;;;;5074227;28;20442;-71
2021/05/20 07:56:55;;;;;;;6.22;2.20;;;17.50;64.00;;;;;;5073470;28;20044;-64
2021/05/20 07:59:21;;;;;;;3.72;1.73;;;17.60;63.10;;;;;;5074689;28;20063;-65
2021/05/20 08:02:14;;;;;;;;;;;17.70;63.00;;;;;;5073935;28;20056;-66
2021/05/20 08:04:45;;;;;;;75.75;21.98;;;17.80;63.70;;;;;;5074654;28;19938;-71
2021/05/20 08:12:43;;;;;;;50.55;17.55;;;18.30;62.50;;;;;;5074503;28;20304;-65
2021/05/20 08:15:10;;;;;;;12.50;4.57;;;18.30;60.80;;;;;;5073210;28;20089;-71
2021/05/20 08:17:36;;;;;;;5.38;2.03;;;18.40;60.10;;;;;;5073222;28;20039;-71
2021/05/20 08:20:05;;;;;;;17.45;6.90;;;18.50;60.40;;;;;;5073092;28;20196;-65
2021/05/20 08:25:24;;;;;;;3.60;1.70;;;18.70;59.90;;;;;;5011832;28;20041;-64
2021/05/20 08:27:51;;;;;;;6.32;1.70;;;18.80;59.00;;;;;;5011927;28;20438;-71
2021/05/20 08:30:18;;;;;;;3.22;1.50;;;19.00;57.60;;;;;;5011971;28;20466;-65
2021/05/20 08:33:03;;;;;;;7.07;2.45;;;19.30;56.60;;;;;;4995761;28;20498;-65
2021/05/20 08:35:33;;;;;;;6.63;2.58;;;19.50;56.30;;;;;;5011766;28;20046;-66
2021/05/20 08:37:59;;;;;;;10.95;3.88;;;20.00;56.10;;;;;;4995909;28;20188;-71
2021/05/20 08:40:26;;;;;;;3.88;1.65;;;20.40;55.70;;;;;;5011497;28;20049;-71
2021/05/20 08:43:03;;;;;;;7.00;3.00;;;20.80;52.50;;;;;;4995405;28;20049;-65
2021/05/20 08:45:32;;;;;;;6.57;2.80;;;21.00;52.40;;;;;;4995405;28;20098;-65
2021/05/20 08:48:11;;;;;;;4.47;1.50;;;21.20;51.70;;;;;;4995304;28;20053;-72
2021/05/20 08:50:37;;;;;;;6.88;1.92;;;21.40;51.40;;;;;;4994982;28;20054;-71
2021/05/20 08:53:12;;;;;;;7.28;2.78;;;21.70;51.50;;;;;;5011619;28;20225;-71
2021/05/20 08:55:47;;;;;;;6.65;3.25;;;21.90;51.00;;;;;;5037931;28;20121;-72
2021/05/20 08:58:13;;;;;;;6.93;2.20;;;22.10;50.00;;;;;;5073610;28;20036;-71
2021/05/20 09:00:47;;;;;;;6.40;1.98;;;22.30;49.30;;;;;;5073273;28;20063;-65
2021/05/20 09:03:14;;;;;;;4.07;2.05;;;22.30;48.20;;;;;;5050961;28;20053;-72
2021/05/20 09:05:59;;;;;;;7.30;2.50;;;22.40;48.80;;;;;;5034287;28;20080;-65
2021/05/20 09:08:50;;;;;;;4.68;2.13;;;22.40;47.90;;;;;;5051083;28;20040;-66
2021/05/20 09:11:35;;;;;;;6.35;2.72;;;22.50;48.10;;;;;;5034283;28;20056;-72
2021/05/20 09:14:31;;;;;;;5.85;2.55;;;22.60;46.50;;;;;;5034251;28;20033;-72
2021/05/20 09:17:21;;;;;;;6.43;2.40;;;22.70;45.70;;;;;;4972161;28;20054;-72
2021/05/20 09:20:09;;;;;;;8.40;3.67;;;23.10;43.90;;;;;;4972057;28;20038;-72
2021/05/20 09:22:38;;;;;;;7.85;3.70;;;23.60;42.20;;;;;;4955943;28;20051;-66
2021/05/20 09:25:07;;;;;;;14.45;5.70;;;24.20;41.20;;;;;;4955867;28;20483;-71
2021/05/20 09:27:43;;;;;;;8.10;3.22;;;24.80;41.10;;;;;;4971916;28;20098;-66
2021/05/20 09:30:30;;;;;;;2.23;1.03;;;25.60;38.30;;;;;;4971663;28;20041;-72
2021/05/20 09:33:17;;;;;;;14.15;2.00;;;26.50;37.50;;;;;;4955910;28;20107;-66
2021/05/20 09:36:05;;;;;;;6.05;1.25;;;27.10;35.70;;;;;;4991166;28;20042;-72
2021/05/20 09:38:37;;;;;;;9.57;3.75;;;26.60;35.80;;;;;;4991363;28;20466;-66
2021/05/20 09:41:06;;;;;;;5.15;1.70;;;25.90;34.10;;;;;;4991119;28;20117;-65
2021/05/20 09:43:51;;;;;;;4.57;1.42;;;25.10;35.50;;;;;;4991145;28;20081;-72
2021/05/20 09:46:18;;;;;;;2.85;1.15;;;24.30;37.00;;;;;;4975020;28;20034;-72
2021/05/20 09:49:04;;;;;;;3.92;1.17;;;24.00;36.50;;;;;;4991121;28;20034;-72
2021/05/20 09:51:30;;;;;;;2.70;0.90;;;23.60;37.40;;;;;;4991199;28;20042;-71
2021/05/20 09:53:57;;;;;;;6.72;1.52;;;23.20;37.50;;;;;;5037383;28;20049;-72
2021/05/20 09:56:41;;;;;;;3.45;1.13;;;23.40;37.60;;;;;;5073145;28;20094;-71
2021/05/20 09:59:16;;;;;;;1.75;0.68;;;23.40;36.90;;;;;;5072592;28;20071;-72
2021/05/20 10:01:43;;;;;;;3.83;1.20;;;23.50;37.10;;;;;;5071342;28;20102;-72
2021/05/20 10:04:28;;;;;;;2.35;0.90;;;24.10;36.60;;;;;;5072644;28;20033;-72
2021/05/20 10:06:56;;;;;;;3.97;1.30;;;24.80;35.90;;;;;;5072563;28;20032;-66
2021/05/20 10:09:23;;;;;;;2.08;1.00;;;25.80;34.30;;;;;;5072423;28;20071;-66
2021/05/20 10:11:50;;;;;;;5.50;1.15;;;26.70;33.00;;;;;;5071222;28;20041;-66
2021/05/20 10:14:16;;;;;;;2.65;1.10;;;27.40;32.50;;;;;;5071326;28;20094;-66
2021/05/20 10:16:43;;;;;;;2.85;0.90;;;27.90;30.80;;;;;;5071501;28;20044;-72
2021/05/20 10:19:12;;;;;;;2.63;0.82;;;28.20;29.80;;;;;;5071232;28;20033;-66
2021/05/20 10:21:39;;;;;;;4.68;0.90;;;27.90;28.20;;;;;;5054609;28;20033;-66
2021/05/20 10:24:07;;;;;;;3.72;1.35;;;27.90;29.40;;;;;;5071164;28;20152;-72
2021/05/20 10:29:22;;;;;;;4.68;1.85;;;26.80;30.20;;;;;;5072261;28;20125;-66
2021/05/20 10:31:49;;;;;;;4.72;1.20;;;25.90;31.00;;;;;;5072293;28;20048;-71
2021/05/20 10:34:17;;;;;;;3.60;1.02;;;25.20;31.80;;;;;;5071040;28;20028;-72
2021/05/20 10:37:06;;;;;;;6.97;1.20;;;26.00;31.90;;;;;;5071363;28;20040;-72
2021/05/20 10:39:33;;;;;;;4.05;1.63;;;27.10;31.10;;;;;;5071188;28;20550;-72
2021/05/20 10:41:59;;;;;;;4.47;2.15;;;28.10;29.70;;;;;;5070931;28;20043;-72
2021/05/20 10:44:26;;;;;;;9.75;5.63;;;28.80;28.30;;;;;;5074292;28;20484;-66
2021/05/20 10:47:11;;;;;;;5.95;2.85;;;29.70;27.80;;;;;;5075953;28;20373;-67
2021/05/20 10:50:15;;;;;;;4.18;1.52;;;30.50;27.90;;;;;;5076046;28;20028;-66
2021/05/20 10:52:43;;;;;;;5.00;2.70;;;31.60;27.60;;;;;;5074778;28;20557;-73
2021/05/20 10:55:36;;;;;;;4.78;2.20;;;32.30;26.40;;;;;;5074704;28;20035;-73
2021/05/20 10:58:03;;;;;;;6.28;1.90;;;32.30;26.20;;;;;;5074596;28;20033;-73
2021/05/20 11:00:47;;;;;;;7.38;2.78;;;32.20;24.90;;;;;;5074342;28;20420;-73
2021/05/20 11:03:14;;;;;;;6.63;3.83;;;33.00;25.90;;;;;;5075737;28;20377;-72
2021/05/20 11:05:58;;;;;;;4.18;1.88;;;33.50;24.00;;;;;;5075925;28;20033;-72
2021/05/20 11:09:21;;;;;;;5.95;2.60;;;33.40;24.20;;;;;;5075696;28;20438;-70
2021/05/20 11:11:48;;;;;;;4.45;1.60;;;33.20;24.20;;;;;;5091166;28;20045;-66
2021/05/20 11:14:14;;;;;;;7.45;5.20;;;32.40;24.20;;;;;;5074645;28;20059;-73
2021/05/20 11:17:01;;;;;;;2.88;1.10;;;31.30;23.80;;;;;;5075982;28;20048;-73
2021/05/20 11:19:30;;;;;;;4.72;2.70;;;31.40;24.50;;;;;;5075346;28;20029;-73
2021/05/20 11:22:15;;;;;;;4.65;1.20;;;31.10;24.40;;;;;;5075314;28;20446;-67
2021/05/20 11:24:43;;;;;;;2.08;1.10;;;31.90;23.60;;;;;;5073979;28;20503;-67
2021/05/20 11:27:16;;;;;;;9.73;1.73;;;32.70;22.90;;;;;;5073954;28;20519;-67
2021/05/20 11:29:47;;;;;;;3.70;1.17;;;33.90;22.30;;;;;;5073939;28;20538;-67
2021/05/20 11:38:03;;;;;;;4.00;2.00;;;37.10;21.50;;;;;;5075173;28;20303;-73
2021/05/20 11:40:33;;;;;;;1.83;0.98;;;38.30;18.90;;;;;;5075204;28;20028;-67
2021/05/20 11:43:01;;;;;;;6.43;1.10;;;39.10;19.00;;;;;;5073729;28;20056;-74
2021/05/20 11:45:46;;;;;;;4.13;1.30;;;39.60;17.30;;;;;;5073863;28;20070;-74
2021/05/20 11:48:17;;;;;;;7.15;3.08;;;38.70;17.90;;;;;;5073684;28;20471;-73
2021/05/20 11:51:02;;;;;;;4.53;1.40;;;37.30;18.70;;;;;;5073557;28;20032;-66
2021/05/20 11:53:28;;;;;;;1.95;0.98;;;35.80;19.40;;;;;;5073286;28;20060;-67
2021/05/20 11:55:54;;;;;;;5.22;1.30;;;36.90;19.00;;;;;;5073468;28;20044;-69
2021/05/20 11:58:21;;;;;;;2.20;1.10;;;38.40;18.20;;;;;;5074730;28;20063;-67
2021/05/20 12:00:47;;;;;;;4.40;1.10;;;39.80;17.40;;;;;;5074335;28;20095;-67
2021/05/20 12:03:13;;;;;;;7.07;1.73;;;40.80;16.70;;;;;;5073380;28;20036;-73
2021/05/20 12:05:40;;;;;;;4.43;1.45;;;41.50;16.10;;;;;;5073483;28;20040;-73
2021/05/20 12:08:18;;;;;;;3.40;1.30;;;42.00;15.70;;;;;;5074538;28;20037;-74
2021/05/20 12:11:10;;;;;;;4.93;1.40;;;40.90;15.50;;;;;;5089948;28;20059;-74
2021/05/20 12:13:38;;;;;;;5.95;2.30;;;41.80;15.70;;;;;;5074112;28;20121;-74
2021/05/20 12:16:04;;;;;;;4.10;2.00;;;42.30;14.90;;;;;;5090052;28;20487;-67
2021/05/20 12:18:40;;;;;;;6.90;3.20;;;42.80;13.50;;;;;;5073202;28;20492;-74
2021/05/20 12:21:09;;;;;;;7.30;2.08;;;43.10;14.10;;;;;;5074238;28;20081;-67
2021/05/20 12:23:36;;;;;;;8.85;4.57;;;43.40;13.30;;;;;;5074284;28;20115;-67
2021/05/20 12:26:02;;;;;;;4.22;2.10;;;43.80;14.00;;;;;;5089948;28;20036;-74
2021/05/20 12:28:28;;;;;;;2.15;1.20;;;44.10;13.80;;;;;;5074166;28;20480;-74
2021/05/20 12:30:59;;;;;;;2.90;1.45;;;44.20;13.40;;;;;;5072916;28;20472;-68
2021/05/20 12:33:36;;;;;;;3.78;1.50;;;44.50;12.60;;;;;;5072980;28;20093;-67
2021/05/20 12:36:03;;;;;;;1.90;1.10;;;44.30;12.80;;;;;;5074398;28;20107;-68
2021/05/20 12:38:48;;;;;;;2.45;1.30;;;44.50;12.00;;;;;;5072731;28;20516;-73
2021/05/20 12:41:14;;;;;;;4.63;2.00;;;43.40;13.10;;;;;;5089628;28;20033;-67
2021/05/20 12:43:40;;;;;;;4.20;1.30;;;43.40;13.20;;;;;;5073820;28;20063;-67
2021/05/20 12:46:25;;;;;;;3.78;1.45;;;43.20;12.00;;;;;;5074125;28;20040;-67
2021/05/20 12:49:10;;;;;;;2.60;1.20;;;41.80;13.20;;;;;;5073748;28;20028;-74
2021/05/20 12:51:36;;;;;;;2.97;1.13;;;42.00;13.00;;;;;;5072649;28;20035;-73
2021/05/20 12:54:41;;;;;;;3.65;1.10;;;42.60;12.60;;;;;;5089179;28;20087;-67
2021/05/20 12:57:08;;;;;;;2.50;1.13;;;43.10;12.50;;;;;;5072430;28;20032;-67
2021/05/20 12:59:37;;;;;;;4.88;1.08;;;43.70;11.90;;;;;;5073191;28;20388;-67
2021/05/20 13:02:29;;;;;;;4.55;1.60;;;43.80;11.50;;;;;;5072219;28;20373;-74
2021/05/20 13:05:08;;;;;;;4.63;1.10;;;43.50;12.50;;;;;;5073106;28;20028;-67
2021/05/20 13:07:34;;;;;;;1.85;1.10;;;43.00;12.20;;;;;;5072102;28;20421;-74
2021/05/20 13:10:02;;;;;;;5.63;1.35;;;41.40;13.30;;;;;;5071977;28;20051;-67
2021/05/20 13:12:42;;;;;;;3.28;1.20;;;41.00;14.00;;;;;;5073392;28;20036;-67
2021/05/20 13:23:09;;;;;;;2.80;1.38;;;43.70;11.60;;;;;;5073104;28;20057;-67
2021/05/20 13:25:36;;;;;;;2.92;1.27;;;43.60;11.80;;;;;;5071976;28;20040;-73
2021/05/20 13:28:04;;;;;;;2.95;1.48;;;43.50;11.40;;;;;;5073015;28;20037;-67
2021/05/20 13:33:25;;;;;;;2.45;1.05;;;43.60;12.10;;;;;;5073176;28;20033;-67
2021/05/20 13:35:52;;;;;;;3.03;1.30;;;43.30;12.60;;;;;;5071987;28;20461;-74
2021/05/20 13:38:19;;;;;;;4.55;1.85;;;43.00;12.20;;;;;;5071726;28;20075;-74
2021/05/20 13:40:47;;;;;;;4.28;2.58;;;41.10;13.20;;;;;;5072948;28;20048;-73
2021/05/20 13:43:14;;;;;;;1.92;1.00;;;41.90;12.60;;;;;;5072866;28;20040;-67
2021/05/20 13:45:40;;;;;;;3.13;1.10;;;42.50;12.20;;;;;;5071537;28;20047;-67